Friday, February 23, 2018, 1:41 PM EST
Back to Local

KAQW, N Adams Harriman-and-west

Location: North Adams, MA, United States Lat: 42.7
Local Time: 1:41 PM EST (18:41 GMT) Lon: -73.167
Time Zone: US/Eastern Elev: 652 ft

Show me the last for .
Show Decoded

2018-02-23 12:52 METAR KAQW 231752Z AUTO 10015G25KT 5SM -RA BKN033 OVC047 01/M03 A3047 RMK AO2
                 UPB36E38 SLP329 P0002 60002 T00061028 10017 21044 58036 =
2018-02-23 11:52 METAR KAQW 231652Z AUTO 12009G21KT 10SM -RA BKN038 OVC050 02/M06 A3053 RMK AO2
                 RAE10B51UPB49E51 SLP347 P0000 T00171056 =
2018-02-23 10:52 METAR KAQW 231552Z AUTO 12010G19KT 10SM -RA FEW035 BKN070 OVC090 01/M05 A3055
                 RMK AO2 UPB29E45RAB45 SLP353 P0000 T00111050 =
2018-02-23 09:52 METAR KAQW 231452Z AUTO 12008G16KT 10SM SCT100 OVC110 00/M05 A3058 RMK AO2
                 SLP366 T00001050 58016 =
2018-02-23 08:52 METAR KAQW 231352Z AUTO 07006KT 10SM BKN080 M01/M06 A3060 RMK AO2 SLP372
                 T10111056 =
2018-02-23 07:52 METAR KAQW 231252Z AUTO 09006KT 10SM BKN090 M02/M06 A3063 RMK AO2 SLP383
                 T10171061 =
2018-02-23 06:52 METAR KAQW 231152Z AUTO 14006KT 10SM CLR M04/M06 A3063 RMK AO2 SLP383 70014
                 T10391056 11017 21044 58005 =
2018-02-23 05:52 METAR KAQW 231052Z AUTO 14005KT 10SM CLR M04/M06 A3063 RMK AO2 SLP383 T10391056
                 =
2018-02-23 05:16 METAR KAQW 231016Z AUTO 14003KT 10SM SCT007 M04/M05 A3064 RMK AO2 T10441050 =
2018-02-23 04:52 METAR KAQW 230952Z AUTO 08003KT 10SM OVC007 M03/M04 A3065 RMK AO2 SLP390
                 T10331044 =
2018-02-23 03:52 METAR KAQW 230852Z AUTO 00000KT 10SM OVC007 M02/M04 A3065 RMK AO2 SLP388
                 T10221039 56017 =
2018-02-23 02:52 METAR KAQW 230752Z AUTO 00000KT 10SM OVC009 M02/M03 A3065 RMK AO2 PRESFR SLP388
                 T10221033 =
2018-02-23 02:18 METAR KAQW 230718Z AUTO 00000KT 10SM OVC010 M02/M03 A3069 RMK AO2 T10171033 =
2018-02-23 01:52 METAR KAQW 230652Z AUTO 27003KT 10SM OVC008 M02/M03 A3070 RMK AO2 SLP405
                 T10171033 =
2018-02-23 00:52 METAR KAQW 230552Z AUTO 00000KT 10SM OVC008 M02/M03 A3066 RMK AO2 SLP392 I6000
                 T10171028 11017 21050 58003 =
2018-02-22 23:52 METAR KAQW 230452Z AUTO 00000KT 10SM OVC009 M02/M03 A3067 RMK AO2 SLP396
                 T10171028 400391050 =
2018-02-22 22:52 METAR KAQW 230352Z AUTO 00000KT 10SM OVC008 M02/M03 A3068 RMK AO2 SLP398
                 T10171028 =
2018-02-22 21:52 METAR KAQW 230252Z AUTO 00000KT 10SM OVC007 M02/M03 A3067 RMK AO2 SLP395 I3000
                 T10171028 51015 =
2018-02-22 20:52 METAR KAQW 230152Z AUTO 23004KT 10SM OVC007 M03/M04 A3067 RMK AO2 CIG 006V012
                 SLP393 I1000 T10331039 =
2018-02-22 20:25 METAR KAQW 230125Z AUTO 00000KT 7SM BKN007 BKN013 M05/M06 A3065 RMK AO2
                 T10501056 =
2018-02-22 20:15 METAR KAQW 230115Z AUTO 00000KT 7SM SCT007 M04/M06 A3065 RMK AO2 T10441056 =
2018-02-22 19:52 METAR KAQW 230052Z AUTO 00000KT 10SM CLR M04/M05 A3065 RMK AO2 SLP388 T10441050
                 =
2018-02-22 19:35 METAR KAQW 230035Z AUTO 26003KT 10SM FEW009 M04/M05 A3065 RMK AO2 T10441050 =
2018-02-22 18:52 METAR KAQW 222352Z AUTO 00000KT 10SM CLR M03/M04 A3063 RMK AO2 SLP381 60013
                 T10331039 11006 21033 58007 =
2018-02-22 18:25 METAR KAQW 222325Z AUTO 27004KT 10SM FEW009 BKN100 M02/M03 A3063 RMK AO2
                 T10171028 =
2018-02-22 17:52 METAR KAQW 222252Z AUTO 26004KT 10SM OVC100 M01/M02 A3064 RMK AO2 SNE01 SLP384
                 P0000 T10111022 =
2018-02-22 17:16 METAR KAQW 222216Z AUTO 29003KT 10SM SCT007 OVC100 M01/M02 A3064 RMK AO2 SNE01
                 P0000 T10111022 =
2018-02-22 16:52 METAR KAQW 222152Z AUTO 00000KT 9SM -SN OVC006 M01/M02 A3065 RMK AO2 SLP387
                 P0001 T10061017 =
2018-02-22 16:47 METAR KAQW 222147Z AUTO 00000KT 6SM -SN BR OVC006 M01/M02 A3065 RMK AO2 P0001 =
2018-02-22 16:38 METAR KAQW 222138Z AUTO 29005KT 2SM -SN BR OVC005 M01/M02 A3066 RMK AO2 P0001
                 T10061017 =
2018-02-22 16:35 METAR KAQW 222135Z AUTO 30003KT 1 1/4SM -SN BR OVC005 M01/M02 A3065 RMK AO2
                 P0001 T10111017 =
2018-02-22 15:52 METAR KAQW 222052Z AUTO 26005KT 1/2SM SN FZFG OVC005 M01/M02 A3064 RMK AO2
                 SLP386 P0005 60012 T10111017 53010 =
2018-02-22 15:31 METAR KAQW 222031Z AUTO 26005KT 1/2SM SN FZFG BKN005 OVC008 M01/M02 A3064 RMK
                 AO2 P0003 T10111017 =
2018-02-22 15:15 METAR KAQW 222015Z AUTO 26006KT 1/4SM SN FZFG OVC006 M01/M02 A3063 RMK AO2 P0002
                 T10111017 =
2018-02-22 15:05 METAR KAQW 222005Z AUTO 27005KT 1/2SM SN FZFG OVC006 M01/M02 A3063 RMK AO2 P0001
                 T10111017 =
2018-02-22 14:52 METAR KAQW 221952Z AUTO 27006KT 1/2SM SN FZFG BKN004 OVC008 M01/M02 A3064 RMK
                 AO2 SLP382 P0004 T10061017 =
2018-02-22 14:42 METAR KAQW 221942Z AUTO 27007KT 1/4SM SN FZFG BKN004 OVC009 M01/M02 A3062 RMK
                 AO2 P0004 T10061017 =
2018-02-22 14:35 METAR KAQW 221935Z AUTO 27007KT 1/2SM SN FZFG BKN004 OVC011 M01/M02 A3062 RMK
                 AO2 P0003 T10061017 =
2018-02-22 13:52 METAR KAQW 221852Z AUTO 00000KT 1/2SM SN FZFG FEW005 OVC014 M01/M02 A3060 RMK
                 AO2 SLP371 P0003 T10061017 =
2018-02-22 13:42 METAR KAQW 221842Z AUTO 30003KT 1/2SM SN FZFG FEW005 OVC018 M01/M02 A3060 RMK
                 AO2 P0002 T10061017 =

Support USWX by starting your Amazon purchase here.